Time;durP1;ratioP1;P1;durP2;ratioP2;P2;SDS_P1;SDS_P2;PMS_P1;PMS_P2;Temp;Humidity;BMP_temperature;BMP_pressure;BME280_temperature;BME280_humidity;BME280_pressure;Samples;Min_cycle;Max_cycle;Signal;HPM_P1;HPM_P2
2021/03/22 00:01:18;;;;;;;32.03;9.97;;;;;;;1.11;100.00;93965.97;5075408;28;20202;-77
2021/03/22 00:03:45;;;;;;;32.57;9.70;;;;;;;1.11;100.00;93971.13;5075430;28;20211;-77
2021/03/22 00:06:11;;;;;;;27.03;9.77;;;;;;;1.14;100.00;93964.09;5074858;28;20230;-77
2021/03/22 00:08:37;;;;;;;27.67;8.57;;;;;;;1.00;100.00;93971.31;5075468;28;20252;-77
2021/03/22 00:11:04;;;;;;;24.70;9.50;;;;;;;1.14;100.00;93970.06;5075250;28;20199;-76
2021/03/22 00:13:30;;;;;;;23.63;8.93;;;;;;;1.16;100.00;93964.78;5075071;28;20229;-77
2021/03/22 00:15:59;;;;;;;32.43;9.10;;;;;;;1.18;100.00;93955.16;5075242;28;20210;-77
2021/03/22 00:18:29;;;;;;;34.73;9.40;;;;;;;1.19;100.00;93967.06;5075290;28;20607;-77
2021/03/22 00:20:56;;;;;;;28.80;9.40;;;;;;;1.06;100.00;93964.78;5075142;28;20203;-76
2021/03/22 00:23:22;;;;;;;30.83;9.77;;;;;;;1.02;100.00;93959.13;5074989;28;20207;-77
2021/03/22 00:25:48;;;;;;;35.50;9.50;;;;;;;0.97;100.00;93966.44;5075020;28;20201;-77
2021/03/22 00:28:16;;;;;;;23.57;9.47;;;;;;;1.07;100.00;93964.66;5074880;28;20718;-77
2021/03/22 00:30:43;;;;;;;22.13;9.33;;;;;;;0.98;100.00;93968.03;5075021;28;20199;-76
2021/03/22 00:33:11;;;;;;;30.60;8.73;;;;;;;1.08;100.00;93961.16;5074620;28;20685;-76
2021/03/22 00:35:38;;;;;;;33.80;8.53;;;;;;;1.04;100.00;93964.91;5074491;28;20202;-76
2021/03/22 00:38:05;;;;;;;31.43;9.87;;;;;;;1.01;100.00;93959.25;5074610;28;20661;-76
2021/03/22 00:40:34;;;;;;;31.10;9.73;;;;;;;1.03;100.00;93955.59;5074622;28;20214;-76
2021/03/22 00:43:01;;;;;;;25.03;9.07;;;;;;;1.00;100.00;93955.88;5074766;28;20207;-76
2021/03/22 00:45:27;;;;;;;35.30;8.70;;;;;;;1.01;100.00;93952.34;5074592;28;20672;-78
2021/03/22 00:47:53;;;;;;;34.63;8.90;;;;;;;0.91;100.00;93948.97;5074677;28;20202;-77
2021/03/22 00:50:24;;;;;;;33.35;9.90;;;;;;;0.86;100.00;93957.09;5073994;28;20843;-77
2021/03/22 00:52:50;;;;;;;39.43;10.63;;;;;;;1.01;100.00;93954.91;5074413;28;20218;-77
2021/03/22 00:55:17;;;;;;;31.53;9.67;;;;;;;0.99;100.00;93950.88;5074192;28;20705;-77
2021/03/22 00:57:43;;;;;;;26.97;8.80;;;;;;;0.98;100.00;93959.53;5074416;28;20199;-77
2021/03/22 01:00:17;;;;;;;31.90;9.00;;;;;;;0.96;100.00;93959.66;5074474;28;20699;-76
2021/03/22 01:02:43;;;;;;;38.77;8.97;;;;;;;0.83;100.00;93954.00;5074413;28;20205;-78
2021/03/22 01:05:10;;;;;;;36.83;8.57;;;;;;;0.88;100.00;93964.66;5073983;28;20206;-77
2021/03/22 01:07:36;;;;;;;27.77;9.13;;;;;;;0.97;100.00;93953.56;5074114;28;20203;-77
2021/03/22 01:10:06;;;;;;;30.10;8.17;;;;;;;1.07;100.00;93945.84;5074058;28;20210;-76
2021/03/22 01:12:33;;;;;;;32.63;8.60;;;;;;;0.95;100.00;93945.19;5074090;28;20225;-76
2021/03/22 01:14:59;;;;;;;34.20;9.33;;;;;;;1.01;100.00;93936.91;5073845;28;20723;-78
2021/03/22 01:17:24;;;;;;;37.40;9.73;;;;;;;0.89;100.00;93936.25;5073217;28;20203;-77
2021/03/22 01:19:50;;;;;;;25.97;8.70;;;;;;;0.85;100.00;93936.66;5073959;28;20206;-77
2021/03/22 01:22:16;;;;;;;32.27;9.03;;;;;;;0.85;100.00;93936.66;5073711;28;20227;-77
2021/03/22 01:24:42;;;;;;;33.57;9.67;;;;;;;0.66;100.00;93940.88;5074056;28;20624;-77
2021/03/22 01:27:10;;;;;;;34.97;9.57;;;;;;;0.78;100.00;93938.16;5073890;28;20199;-77
2021/03/22 01:29:39;;;;;;;35.23;9.17;;;;;;;0.78;100.00;93938.16;5073746;28;20562;-77
2021/03/22 01:32:07;;;;;;;35.70;9.20;;;;;;;0.79;100.00;93924.38;5073628;28;20210;-77
2021/03/22 01:34:33;;;;;;;38.30;10.47;;;;;;;0.83;100.00;93931.66;5073376;28;20692;-76
2021/03/22 01:36:59;;;;;;;31.67;8.43;;;;;;;0.84;100.00;93927.34;5073469;28;20194;-76
2021/03/22 01:39:29;;;;;;;40.53;9.87;;;;;;;0.88;100.00;93931.25;5073673;28;20605;-77
2021/03/22 01:42:16;;;;;;;35.73;8.63;;;;;;;0.83;100.00;93930.88;5073577;28;20202;-76
2021/03/22 01:44:45;;;;;;;28.63;9.70;;;;;;;0.85;100.00;93923.81;5073562;28;20573;-78
2021/03/22 01:47:16;;;;;;;28.27;8.57;;;;;;;0.86;100.00;93925.44;5073383;28;20203;-77
2021/03/22 01:49:46;;;;;;;35.57;8.40;;;;;;;0.81;100.00;93923.28;5073337;28;20232;-78
2021/03/22 01:52:13;;;;;;;33.67;9.33;;;;;;;0.77;100.00;93918.56;5073429;28;20204;-77
2021/03/22 01:54:40;;;;;;;32.67;8.87;;;;;;;0.88;100.00;93923.56;5073318;28;20253;-77
2021/03/22 01:57:28;;;;;;;45.67;8.63;;;;;;;0.77;100.00;93926.25;5073160;28;20203;-78
2021/03/22 02:00:06;;;;;;;32.47;8.90;;;;;;;0.84;100.00;93914.50;5073144;28;20199;-77
2021/03/22 02:02:34;;;;;;;36.53;9.27;;;;;;;0.68;100.00;93918.47;5073519;28;20248;-77
2021/03/22 02:05:00;;;;;;;27.63;7.90;;;;;;;0.69;100.00;93920.06;5073295;28;20321;-77
2021/03/22 02:07:26;;;;;;;40.00;10.17;;;;;;;0.66;100.00;93917.75;5073121;28;20267;-77
2021/03/22 02:09:53;;;;;;;41.80;9.33;;;;;;;0.69;100.00;93921.81;5073146;28;20195;-77
2021/03/22 02:12:21;;;;;;;23.53;7.73;;;;;;;0.64;100.00;93922.22;5073028;28;20198;-76
2021/03/22 02:14:49;;;;;;;36.10;8.87;;;;;;;0.60;100.00;93925.19;5073130;28;20231;-77
2021/03/22 02:17:26;;;;;;;32.10;8.67;;;;;;;0.59;100.00;93934.66;5073041;28;20198;-77
2021/03/22 02:20:28;;;;;;;45.38;10.27;;;;;;;0.57;100.00;93918.59;5072679;28;20445;-76
2021/03/22 02:23:24;;;;;;;31.53;8.27;;;;;;;0.65;100.00;93921.28;5072772;28;20205;-77
2021/03/22 02:25:57;;;;;;;33.47;8.33;;;;;;;0.60;100.00;93917.50;5073020;28;20202;-76
2021/03/22 02:28:45;;;;;;;36.83;9.03;;;;;;;0.49;100.00;93913.31;5072836;28;20198;-77
2021/03/22 02:31:44;;;;;;;37.40;8.67;;;;;;;0.51;100.00;93916.56;5072702;28;20202;-77
2021/03/22 02:34:19;;;;;;;39.80;8.43;;;;;;;0.56;100.00;93909.25;5072531;28;20234;-77
2021/03/22 02:36:56;;;;;;;32.97;8.00;;;;;;;0.67;100.00;93913.44;5072927;28;20209;-77
2021/03/22 02:39:23;;;;;;;28.63;8.13;;;;;;;0.64;100.00;93914.53;5072257;28;20573;-76
2021/03/22 02:41:53;;;;;;;37.00;9.20;;;;;;;0.48;100.00;93907.38;5072900;28;20321;-76
2021/03/22 02:44:22;;;;;;;32.43;8.00;;;;;;;0.52;100.00;93918.19;5072830;28;20201;-76
2021/03/22 02:46:54;;;;;;;35.53;8.37;;;;;;;0.56;100.00;93919.53;5072811;28;20202;-76
2021/03/22 02:49:21;;;;;;;36.37;9.07;;;;;;;0.55;100.00;93920.50;5072809;28;20331;-77
2021/03/22 02:52:00;;;;;;;48.80;8.87;;;;;;;0.49;100.00;93926.97;5072571;28;20199;-76
2021/03/22 02:54:37;;;;;;;47.60;8.23;;;;;;;0.54;100.00;93921.44;5072756;28;20303;-76
2021/03/22 02:57:07;;;;;;;31.20;7.40;;;;;;;0.58;100.00;93915.06;5072699;28;20206;-76
2021/03/22 02:59:37;;;;;;;31.13;8.07;;;;;;;0.45;100.00;93914.53;5072635;28;20203;-77
2021/03/22 03:02:05;;;;;;;34.43;7.53;;;;;;;0.48;100.00;93924.53;5072600;28;20496;-76
2021/03/22 03:04:36;;;;;;;33.60;7.50;;;;;;;0.45;100.00;93925.63;5072227;28;20206;-76
2021/03/22 03:07:05;;;;;;;37.27;7.63;;;;;;;0.54;100.00;93922.22;5072774;28;20593;-76
2021/03/22 03:09:35;;;;;;;38.50;7.70;;;;;;;0.45;100.00;93922.22;5072532;28;20195;-76
2021/03/22 03:12:10;;;;;;;33.97;7.97;;;;;;;0.51;100.00;93916.56;5072606;28;20285;-76
2021/03/22 03:14:36;;;;;;;36.37;7.37;;;;;;;0.49;100.00;93918.47;5072147;28;20234;-76
2021/03/22 03:17:03;;;;;;;45.47;7.87;;;;;;;0.57;100.00;93926.28;5072335;28;20271;-76
2021/03/22 03:19:29;;;;;;;34.57;8.10;;;;;;;0.42;100.00;93928.47;5072542;28;20199;-76
2021/03/22 03:21:56;;;;;;;36.10;8.37;;;;;;;0.44;100.00;93921.44;5072443;28;20282;-77
2021/03/22 03:24:22;;;;;;;45.47;8.60;;;;;;;0.36;100.00;93924.66;5072361;28;20199;-76
2021/03/22 03:26:48;;;;;;;32.20;7.57;;;;;;;0.32;100.00;93931.03;5072339;28;20738;-77
2021/03/22 03:29:14;;;;;;;27.27;7.47;;;;;;;0.36;100.00;93940.06;5072250;28;20226;-77
2021/03/22 03:31:40;;;;;;;43.27;7.67;;;;;;;0.34;100.00;93939.41;5072175;28;20203;-77
2021/03/22 03:34:06;;;;;;;25.47;7.57;;;;;;;0.42;100.00;93932.75;5072025;28;20638;-77
2021/03/22 03:36:32;;;;;;;34.47;7.30;;;;;;;0.48;100.00;93932.22;5072176;28;20252;-77
2021/03/22 03:38:59;;;;;;;31.20;7.77;;;;;;;0.47;100.00;93938.34;5071866;28;20203;-77
2021/03/22 03:41:25;;;;;;;34.97;7.23;;;;;;;0.48;100.00;93943.34;5074271;28;20562;-77
2021/03/22 03:43:51;;;;;;;30.47;7.40;;;;;;;0.49;100.00;93933.88;5075554;28;20214;-76
2021/03/22 03:46:17;;;;;;;37.67;7.93;;;;;;;0.42;100.00;93930.19;5075926;28;20290;-76
2021/03/22 03:48:43;;;;;;;42.33;8.50;;;;;;;0.34;100.00;93939.41;5075674;28;20348;-77
2021/03/22 03:51:09;;;;;;;37.40;7.93;;;;;;;0.29;100.00;93945.88;5075604;28;20238;-77
2021/03/22 03:53:35;;;;;;;31.47;7.87;;;;;;;0.33;100.00;93940.34;5075643;28;20241;-76
2021/03/22 03:56:03;;;;;;;35.93;8.37;;;;;;;0.34;100.00;93941.16;5075566;28;20207;-76
2021/03/22 03:58:29;;;;;;;31.00;7.90;;;;;;;0.33;100.00;93942.09;5075538;28;20211;-77
2021/03/22 04:00:55;;;;;;;46.65;8.55;;;;;;;0.32;100.00;93943.84;5075276;28;20430;-76
2021/03/22 04:03:25;;;;;;;34.50;7.80;;;;;;;0.30;100.00;93944.94;5075587;28;20199;-76
2021/03/22 04:05:53;;;;;;;37.30;7.47;;;;;;;0.25;100.00;93936.81;5075606;28;20246;-77
2021/03/22 04:08:19;;;;;;;32.67;8.23;;;;;;;0.32;100.00;93948.19;5075394;28;20608;-77
2021/03/22 04:10:46;;;;;;;43.17;7.93;;;;;;;0.34;100.00;93939.41;5075343;28;20199;-77
2021/03/22 04:13:13;;;;;;;35.17;7.63;;;;;;;0.39;100.00;93948.47;5075134;28;20199;-77
2021/03/22 04:15:39;;;;;;;44.63;7.90;;;;;;;0.28;100.00;93947.63;5075347;28;20235;-77
2021/03/22 04:18:06;;;;;;;37.00;7.43;;;;;;;0.23;100.00;93943.84;5074797;28;20211;-76
2021/03/22 04:20:32;;;;;;;38.57;7.80;;;;;;;0.35;100.00;93940.19;5075090;28;20230;-77
2021/03/22 04:22:58;;;;;;;38.10;7.23;;;;;;;0.34;100.00;93941.97;5075128;28;20205;-76
2021/03/22 04:25:24;;;;;;;45.80;7.17;;;;;;;0.32;100.00;93956.69;5075073;28;20198;-76
2021/03/22 04:27:50;;;;;;;35.47;7.00;;;;;;;0.26;100.00;93938.44;5074517;28;20245;-76
2021/03/22 04:30:18;;;;;;;39.13;7.23;;;;;;;0.29;100.00;93948.47;5075117;28;20288;-76
2021/03/22 04:32:44;;;;;;;34.97;7.57;;;;;;;0.24;100.00;93941.16;5074796;28;20229;-76
2021/03/22 04:35:11;;;;;;;40.80;7.73;;;;;;;0.20;100.00;93939.81;5074863;28;20325;-77
2021/03/22 04:37:37;;;;;;;21.43;5.97;;;;;;;0.11;100.00;93943.16;5074326;28;20599;-77
2021/03/22 04:40:05;;;;;;;35.63;7.47;;;;;;;0.12;100.00;93937.88;5054511;28;20497;-76
2021/03/22 04:42:31;;;;;;;33.87;7.47;;;;;;;0.26;100.00;93941.81;5054912;28;20199;-75
2021/03/22 04:44:57;;;;;;;30.87;7.77;;;;;;;0.19;100.00;93953.56;5054678;28;20199;-76
2021/03/22 04:47:24;;;;;;;40.63;6.67;;;;;;;0.16;100.00;93953.84;5054655;28;20207;-77
2021/03/22 04:49:50;;;;;;;31.30;6.83;;;;;;;0.13;100.00;93954.94;5054632;28;20230;-77
2021/03/22 04:52:16;;;;;;;41.60;8.65;;;;;;;0.20;100.00;93965.47;5053976;28;20956;-76
2021/03/22 04:54:42;;;;;;;34.67;7.33;;;;;;;0.16;100.00;93962.34;5054347;28;20365;-77
2021/03/22 04:57:13;;;;;;;33.07;7.33;;;;;;;0.18;100.00;93964.78;5054120;28;20207;-76
2021/03/22 04:59:39;;;;;;;36.93;7.27;;;;;;;0.13;100.00;93970.31;5054460;28;20199;-77
2021/03/22 05:02:06;;;;;;;29.13;6.87;;;;;;;0.17;100.00;93976.81;5054341;28;20666;-76
2021/03/22 05:04:33;;;;;;;38.00;7.37;;;;;;;0.20;100.00;93980.88;5054179;28;20195;-76
2021/03/22 05:06:59;;;;;;;52.73;8.00;;;;;;;0.10;100.00;93980.84;5054152;28;20654;-75
2021/03/22 05:09:25;;;;;;;35.83;7.43;;;;;;;0.08;100.00;93981.91;5053962;28;20214;-78
2021/03/22 05:11:51;;;;;;;43.37;7.90;;;;;;;0.10;100.00;93983.41;5054025;28;20203;-77
2021/03/22 05:14:17;;;;;;;28.40;7.40;;;;;;;0.19;100.00;93979.25;5054077;28;20227;-77
2021/03/22 05:16:43;;;;;;;31.47;7.53;;;;;;;0.22;100.00;93985.84;5054050;28;20562;-76
2021/03/22 05:19:09;;;;;;;39.53;6.83;;;;;;;0.20;100.00;93973.19;5053903;28;20708;-76
2021/03/22 05:21:35;;;;;;;29.20;7.30;;;;;;;0.23;100.00;93975.44;5053847;28;20210;-76
2021/03/22 05:24:01;;;;;;;25.27;6.93;;;;;;;0.12;100.00;93975.59;5053592;28;20663;-76
2021/03/22 05:26:27;;;;;;;43.47;7.13;;;;;;;0.13;100.00;93977.19;5054005;28;20200;-77
2021/03/22 05:28:53;;;;;;;28.67;6.37;;;;;;;0.08;100.00;93969.09;5053936;28;20213;-75
2021/03/22 05:31:19;;;;;;;38.20;7.03;;;;;;;0.26;100.00;93975.19;5053835;28;20199;-76
2021/03/22 05:33:45;;;;;;;34.73;6.60;;;;;;;0.18;100.00;93968.16;5053480;28;20567;-76
2021/03/22 05:36:11;;;;;;;25.63;6.23;;;;;;;0.21;100.00;93968.84;5053426;28;20612;-78
2021/03/22 05:38:38;;;;;;;33.27;6.30;;;;;;;0.32;100.00;93976.44;5053574;28;20294;-76
2021/03/22 05:41:07;;;;;;;31.70;6.00;;;;;;;0.24;100.00;93971.94;5053793;28;20200;-76
2021/03/22 05:43:52;;;;;;;26.97;7.00;;;;;;;0.17;100.00;93983.72;5053352;28;20611;-76
2021/03/22 05:46:33;;;;;;;29.97;7.60;;;;;;;0.25;100.00;93983.84;5053645;28;20203;-77
2021/03/22 05:49:05;;;;;;;44.93;8.97;;;;;;;0.18;100.00;93988.72;5053388;28;20203;-77
2021/03/22 05:51:53;;;;;;;35.50;6.33;;;;;;;0.24;100.00;93976.28;5053645;28;20205;-78
2021/03/22 05:54:42;;;;;;;29.70;7.50;;;;;;;0.28;100.00;93988.69;5053085;28;20223;-77
2021/03/22 05:57:17;;;;;;;27.07;6.73;;;;;;;0.37;100.00;93987.13;5053213;28;20211;-77
2021/03/22 05:59:45;;;;;;;32.67;7.47;;;;;;;0.30;100.00;93986.84;5053463;28;20203;-76
2021/03/22 06:02:17;;;;;;;38.30;8.73;;;;;;;0.33;100.00;93996.84;5053059;28;20658;-76
2021/03/22 06:04:49;;;;;;;49.73;7.83;;;;;;;0.38;100.00;94000.75;5052934;28;20218;-76
2021/03/22 06:07:20;;;;;;;46.77;8.00;;;;;;;0.45;100.00;93999.28;5053226;28;20249;-76
2021/03/22 06:09:53;;;;;;;36.90;7.23;;;;;;;0.46;100.00;94006.03;5053086;28;20199;-76
2021/03/22 06:12:36;;;;;;;38.53;7.43;;;;;;;0.36;100.00;94006.03;5053033;28;20206;-76
2021/03/22 06:15:14;;;;;;;32.97;8.23;;;;;;;0.33;100.00;94007.13;5053062;28;20585;-76
2021/03/22 06:17:45;;;;;;;36.57;7.70;;;;;;;0.45;100.00;94009.53;5053038;28;20214;-76
2021/03/22 06:20:18;;;;;;;40.70;7.17;;;;;;;0.49;100.00;94006.59;5052823;28;20200;-76
2021/03/22 06:22:45;;;;;;;37.23;6.93;;;;;;;0.60;100.00;94007.41;5053080;28;20621;-76
2021/03/22 06:25:16;;;;;;;37.07;7.90;;;;;;;0.28;100.00;94014.38;5052986;28;20328;-75
2021/03/22 06:27:42;;;;;;;47.33;8.63;;;;;;;0.36;100.00;94009.41;5052981;28;20199;-76
2021/03/22 06:30:18;;;;;;;35.07;6.87;;;;;;;0.38;100.00;94011.84;5052658;28;20654;-76
2021/03/22 06:32:48;;;;;;;27.43;7.00;;;;;;;0.39;100.00;94012.66;5052229;28;20246;-76
2021/03/22 06:35:20;;;;;;;29.90;7.20;;;;;;;0.46;100.00;94018.88;5062877;28;20222;-76
2021/03/22 06:37:46;;;;;;;31.13;7.10;;;;;;;0.43;100.00;94016.56;5072912;28;20198;-75
2021/03/22 06:40:28;;;;;;;33.83;7.17;;;;;;;0.46;100.00;94021.44;5072904;28;20199;-76
2021/03/22 06:43:05;;;;;;;29.30;8.70;;;;;;;0.55;100.00;94020.66;5072906;28;20199;-76
2021/03/22 06:45:33;;;;;;;34.23;7.30;;;;;;;0.57;100.00;94018.78;5072845;28;20203;-76
2021/03/22 06:48:15;;;;;;;29.47;6.63;;;;;;;0.63;100.00;94023.34;5072902;28;20209;-76
2021/03/22 06:50:41;;;;;;;29.03;6.40;;;;;;;0.66;100.00;94028.22;5072586;28;20689;-76
2021/03/22 06:53:07;;;;;;;32.10;7.10;;;;;;;0.63;100.00;94032.81;5072713;28;20206;-76
2021/03/22 06:55:38;;;;;;;37.07;6.57;;;;;;;0.64;100.00;94025.00;5072541;28;20593;-76
2021/03/22 06:58:04;;;;;;;28.07;6.53;;;;;;;0.72;100.00;94022.56;5072776;28;20202;-76
2021/03/22 07:00:32;;;;;;;15.57;5.57;;;;;;;0.72;100.00;94022.56;5072707;28;20198;-76
2021/03/22 07:03:00;;;;;;;30.93;6.60;;;;;;;0.72;100.00;94035.41;5072702;28;20565;-76
2021/03/22 07:05:44;;;;;;;48.17;6.53;;;;;;;0.90;100.00;94029.63;5072586;28;20281;-76
2021/03/22 07:08:11;;;;;;;42.90;8.65;;;;;;;0.68;100.00;94036.63;5071060;28;20430;-76
2021/03/22 07:10:40;;;;;;;33.57;7.10;;;;;;;0.71;100.00;94038.91;5072674;28;20211;-76
2021/03/22 07:13:17;;;;;;;33.43;6.77;;;;;;;0.73;100.00;94043.91;5072636;28;20206;-76
2021/03/22 07:15:44;;;;;;;38.80;6.37;;;;;;;0.80;100.00;94041.63;5073519;28;20226;-76
2021/03/22 07:18:17;;;;;;;30.37;6.60;;;;;;;0.87;100.00;94033.25;5076305;28;20207;-76
2021/03/22 07:20:46;;;;;;;34.07;6.83;;;;;;;0.81;100.00;94030.41;5076204;28;20281;-76
2021/03/22 07:23:31;;;;;;;22.47;6.60;;;;;;;1.07;100.00;94036.63;5076149;28;20198;-76
2021/03/22 07:26:03;;;;;;;27.27;4.87;;;;;;;1.18;100.00;94038.22;5076278;28;20580;-76
2021/03/22 07:28:40;;;;;;;26.43;5.13;;;;;;;1.19;100.00;94037.28;5076005;28;20203;-76
2021/03/22 07:31:19;;;;;;;21.37;5.47;;;;;;;1.35;100.00;94041.06;5076046;28;20222;-76
2021/03/22 07:33:54;;;;;;;32.10;5.67;;;;;;;1.31;100.00;94037.16;5075848;28;20239;-76
2021/03/22 07:36:34;;;;;;;35.30;6.57;;;;;;;1.34;100.00;94053.13;5075993;28;20251;-76
2021/03/22 07:39:31;;;;;;;33.37;5.57;;;;;;;1.55;99.85;94044.41;5075996;28;20210;-78
2021/03/22 07:42:25;;;;;;;23.50;6.30;;;;;;;1.83;99.32;94043.53;5075794;28;20209;-76
2021/03/22 07:45:15;;;;;;;25.70;5.03;;;;;;;1.95;97.63;94051.06;5059852;28;20615;-76
2021/03/22 07:47:55;;;;;;;28.53;5.63;;;;;;;2.13;95.27;94058.88;5075764;28;20213;-77
2021/03/22 07:50:26;;;;;;;29.33;4.93;;;;;;;1.98;95.70;94059.34;5075820;28;20203;-76
2021/03/22 07:52:55;;;;;;;30.97;5.37;;;;;;;1.95;96.07;94061.38;5076062;28;20198;-75
2021/03/22 07:55:34;;;;;;;32.80;5.50;;;;;;;1.84;97.29;94059.78;5075201;28;20466;-76
2021/03/22 07:58:07;;;;;;;21.70;5.10;;;;;;;1.71;99.06;94069.56;5075601;28;20198;-76
2021/03/22 08:00:41;;;;;;;31.47;5.20;;;;;;;1.63;99.80;94070.25;5075482;28;20202;-76
2021/03/22 08:03:22;;;;;;;25.00;5.13;;;;;;;1.69;98.46;94068.91;5075389;28;20213;-76
2021/03/22 08:06:09;;;;;;;31.27;5.80;;;;;;;1.81;97.88;94075.50;5075525;28;20207;-76
2021/03/22 08:08:45;;;;;;;23.37;4.60;;;;;;;1.92;96.12;94071.97;5075196;28;20659;-75
2021/03/22 08:11:18;;;;;;;26.13;4.80;;;;;;;1.74;97.02;94064.97;5075587;28;20209;-75
2021/03/22 08:13:52;;;;;;;32.77;5.87;;;;;;;1.69;99.43;94072.28;5075400;28;20203;-76
2021/03/22 08:16:45;;;;;;;22.20;5.03;;;;;;;1.55;96.17;94081.25;5075338;28;20205;-76
2021/03/22 08:19:20;;;;;;;31.27;4.90;;;;;;;1.51;98.64;94085.03;5075151;28;20198;-76
2021/03/22 08:21:54;;;;;;;32.00;5.77;;;;;;;1.42;99.73;94083.31;5075048;28;20234;-75
2021/03/22 08:24:29;;;;;;;28.00;5.33;;;;;;;1.17;100.00;94084.69;5074903;28;20251;-75
2021/03/22 08:27:00;;;;;;;26.80;5.10;;;;;;;1.05;100.00;94091.69;5074769;28;20202;-76
2021/03/22 08:29:30;;;;;;;30.27;6.17;;;;;;;1.07;100.00;94097.53;5074983;28;20203;-75
2021/03/22 08:32:06;;;;;;;43.80;6.03;;;;;;;1.14;100.00;94100.38;5075182;28;20203;-77
2021/03/22 08:34:39;;;;;;;26.60;5.67;;;;;;;1.35;100.00;94098.47;5074465;28;20578;-77
2021/03/22 08:37:08;;;;;;;33.10;5.57;;;;;;;1.40;100.00;94098.88;5074940;28;20293;-76
2021/03/22 08:39:40;;;;;;;26.63;4.90;;;;;;;1.27;99.39;94103.50;5074827;28;20285;-76
2021/03/22 08:42:12;;;;;;;24.70;4.17;;;;;;;1.32;99.63;94110.81;5074743;28;20191;-77
2021/03/22 08:44:43;;;;;;;20.50;4.07;;;;;;;1.25;99.52;94111.34;5074890;28;20199;-76
2021/03/22 08:47:36;;;;;;;31.80;5.70;;;;;;;1.20;99.39;94112.66;5074764;28;20547;-77
2021/03/22 08:50:07;;;;;;;24.00;4.47;;;;;;;1.21;100.00;94109.97;5074675;28;20255;-77
2021/03/22 08:52:36;;;;;;;29.03;5.17;;;;;;;1.28;100.00;94110.22;5074431;28;20316;-76
2021/03/22 08:55:10;;;;;;;25.50;5.57;;;;;;;1.01;100.00;94119.44;5074349;28;20230;-76
2021/03/22 08:57:45;;;;;;;32.30;6.10;;;;;;;0.96;100.00;94116.44;5074551;28;20207;-77
2021/03/22 09:00:25;;;;;;;24.83;6.10;;;;;;;1.03;100.00;94114.97;5074474;28;20209;-77
2021/03/22 09:02:54;;;;;;;32.40;6.20;;;;;;;1.01;100.00;94114.28;5074027;28;20210;-76
2021/03/22 09:05:22;;;;;;;20.43;5.20;;;;;;;1.21;100.00;94129.72;5074298;28;20213;-76
2021/03/22 09:07:48;;;;;;;29.03;5.20;;;;;;;1.44;99.63;94136.22;5074272;28;20627;-75
2021/03/22 09:10:39;;;;;;;25.27;4.60;;;;;;;1.53;97.99;94124.31;5074105;28;20198;-79
2021/03/22 09:13:16;;;;;;;27.57;4.60;;;;;;;1.34;98.93;94129.47;5074093;28;20199;-76
2021/03/22 09:16:11;;;;;;;23.20;4.20;;;;;;;1.53;97.08;94128.66;5073994;28;20226;-76
2021/03/22 09:19:03;;;;;;;19.77;4.40;;;;;;;1.27;96.77;94136.91;5061096;28;20210;-76
2021/03/22 09:21:29;;;;;;;26.53;4.83;;;;;;;1.21;100.00;94134.88;5073892;28;20253;-76
2021/03/22 09:23:56;;;;;;;25.60;4.73;;;;;;;1.03;100.00;94138.13;5073760;28;20661;-77
2021/03/22 09:26:55;;;;;;;21.23;5.13;;;;;;;1.15;100.00;94140.53;5074094;28;20332;-77
2021/03/22 09:29:36;;;;;;;14.00;3.70;;;;;;;1.26;100.00;94141.22;5073835;28;20669;-76
2021/03/22 09:32:24;;;;;;;15.67;3.83;;;;;;;1.47;96.10;94146.25;5073610;28;20649;-77
2021/03/22 09:34:52;;;;;;;23.70;4.67;;;;;;;1.66;97.37;94145.41;5073590;28;20226;-77
2021/03/22 09:37:48;;;;;;;19.10;4.33;;;;;;;1.79;95.24;94154.63;5073675;28;20203;-77
2021/03/22 09:40:52;;;;;;;17.17;3.90;;;;;;;1.89;97.43;94149.47;5073574;28;20201;-75
2021/03/22 09:43:39;;;;;;;20.30;3.70;;;;;;;2.20;94.02;94157.81;5031467;28;20208;-77
2021/03/22 09:46:28;;;;;;;19.90;3.83;;;;;;;2.24;92.51;94154.00;5071725;28;20202;-77
2021/03/22 09:49:25;;;;;;;24.20;4.47;;;;;;;2.18;92.71;94163.09;5073307;28;20495;-78
2021/03/22 09:52:22;;;;;;;22.37;4.03;;;;;;;2.43;91.74;94160.84;5073570;28;20449;-78
2021/03/22 09:54:49;;;;;;;20.63;3.63;;;;;;;2.15;91.80;94167.69;5073188;28;20233;-77
2021/03/22 09:57:43;;;;;;;17.70;3.57;;;;;;;2.16;90.25;94172.72;5073510;28;20202;-77
2021/03/22 10:00:41;;;;;;;25.97;3.80;;;;;;;2.33;91.51;94172.94;5073468;28;20241;-77
2021/03/22 10:03:40;;;;;;;21.77;3.77;;;;;;;2.41;88.80;94165.31;5072986;28;20203;-77
2021/03/22 10:06:29;;;;;;;20.07;3.07;;;;;;;2.35;87.73;94163.34;5073136;28;20293;-76
2021/03/22 10:08:57;;;;;;;16.50;3.40;;;;;;;2.40;91.15;94168.88;5073056;28;20249;-79
2021/03/22 10:11:27;;;;;;;17.33;2.90;;;;;;;2.14;88.37;94160.94;5073094;28;20202;-78
2021/03/22 10:13:59;;;;;;;22.77;3.37;;;;;;;1.81;88.68;94163.81;5073281;28;20199;-77
2021/03/22 10:16:31;;;;;;;17.93;3.10;;;;;;;1.73;90.56;94170.63;5073138;28;20285;-77
2021/03/22 10:19:01;;;;;;;12.40;2.73;;;;;;;1.92;90.64;94170.59;5072910;28;20214;-80
2021/03/22 10:21:30;;;;;;;14.00;2.87;;;;;;;1.94;92.15;94165.31;5072826;28;20206;-77
2021/03/22 10:24:01;;;;;;;11.07;2.33;;;;;;;1.87;89.47;94157.34;5072904;28;20277;-77
2021/03/22 10:26:35;;;;;;;16.83;2.73;;;;;;;1.54;92.32;94164.53;5073031;28;20293;-76
2021/03/22 10:29:14;;;;;;;17.30;3.03;;;;;;;1.79;90.94;94152.88;5072780;28;20206;-79
2021/03/22 10:31:41;;;;;;;13.73;2.77;;;;;;;1.96;91.09;94160.84;5072737;28;20199;-78
2021/03/22 10:34:15;;;;;;;14.13;3.07;;;;;;;1.76;90.89;94160.06;5072472;28;20244;-76
2021/03/22 10:36:42;;;;;;;11.53;2.47;;;;;;;2.00;91.20;94164.78;5072727;28;20205;-76
2021/03/22 10:39:23;;;;;;;8.40;2.37;;;;;;;1.93;89.27;94167.09;5072119;28;20335;-77
2021/03/22 10:41:49;;;;;;;9.90;2.60;;;;;;;2.00;87.94;94159.63;5052812;28;20210;-78
2021/03/22 10:44:20;;;;;;;21.30;4.63;;;;;;;2.12;87.16;94160.28;5052846;28;20195;-77
2021/03/22 10:46:46;;;;;;;31.70;8.37;;;;;;;2.42;86.29;94151.50;5052602;28;20206;-77
2021/03/22 10:49:22;;;;;;;13.37;2.70;;;;;;;3.03;83.51;94163.03;5053204;28;20202;-78
2021/03/22 10:51:51;;;;;;;13.90;2.67;;;;;;;3.11;82.75;94168.28;5056953;28;20209;-76
2021/03/22 10:54:21;;;;;;;16.67;3.40;;;;;;;3.28;81.94;94161.50;5056744;28;20298;-79
2021/03/22 10:56:54;;;;;;;9.43;2.50;;;;;;;3.65;80.61;94159.75;5056708;28;20210;-78
2021/03/22 10:59:22;;;;;;;12.00;2.67;;;;;;;3.87;79.55;94153.28;5056607;28;20325;-76
2021/03/22 11:01:51;;;;;;;6.27;2.10;;;;;;;3.59;78.94;94157.75;5056719;28;20210;-77
2021/03/22 11:04:27;;;;;;;11.50;2.20;;;;;;;3.11;79.24;94150.22;5056636;28;20208;-76
2021/03/22 11:06:56;;;;;;;7.17;1.87;;;;;;;2.72;82.10;94158.16;5056607;28;20268;-78
2021/03/22 11:09:27;;;;;;;10.23;1.93;;;;;;;2.49;81.79;94170.59;5056479;28;20211;-77
2021/03/22 11:11:53;;;;;;;8.70;2.30;;;;;;;2.28;83.84;94173.38;5056420;28;20203;-77
2021/03/22 11:14:24;;;;;;;8.00;1.97;;;;;;;2.38;84.93;94173.34;5056122;28;20199;-77
2021/03/22 11:16:50;;;;;;;13.70;2.70;;;;;;;2.38;82.97;94171.59;5056555;28;20202;-76
2021/03/22 11:19:26;;;;;;;8.03;2.17;;;;;;;2.49;82.74;94173.16;5056603;28;20215;-77
2021/03/22 11:21:54;;;;;;;17.20;2.43;;;;;;;2.64;82.28;94175.28;5056305;28;20264;-75
2021/03/22 11:24:38;;;;;;;7.63;1.87;;;;;;;2.64;83.42;94177.88;5056177;28;20199;-77
2021/03/22 11:27:07;;;;;;;15.68;3.38;;;;;;;2.57;82.13;94185.34;5055098;28;20461;-76
2021/03/22 11:29:45;;;;;;;10.00;2.03;;;;;;;2.47;84.00;94180.22;5056231;28;20215;-76
2021/03/22 11:32:19;;;;;;;6.83;2.03;;;;;;;2.67;84.56;94180.97;5055696;28;20609;-76
2021/03/22 11:34:46;;;;;;;11.20;1.87;;;;;;;3.08;83.46;94183.19;5055887;28;20273;-77
2021/03/22 11:37:16;;;;;;;16.83;2.50;;;;;;;3.13;82.38;94175.84;5056415;28;20227;-79
2021/03/22 11:39:44;;;;;;;12.40;2.23;;;;;;;3.00;81.98;94177.94;5055796;28;20249;-78
2021/03/22 11:42:24;;;;;;;16.50;2.37;;;;;;;2.64;82.71;94183.03;5055815;28;20195;-78
2021/03/22 11:44:51;;;;;;;4.93;1.70;;;;;;;2.72;83.92;94183.13;5055672;28;20199;-77
2021/03/22 11:47:39;;;;;;;9.53;1.97;;;;;;;2.96;83.44;94178.25;5055874;28;20257;-79
2021/03/22 11:50:43;;;;;;;4.23;1.90;;;;;;;2.65;84.12;94177.72;5055895;28;20210;-77